sensor_id;sensor_type;location;lat;lon;timestamp;temperature;humidity
148;DHT22;142;50.652;12.216;2022-12-10T00:01:36;3.00;45.20
148;DHT22;142;50.652;12.216;2022-12-10T00:04:04;3.00;45.20
148;DHT22;142;50.652;12.216;2022-12-10T00:06:33;3.00;45.20
148;DHT22;142;50.652;12.216;2022-12-10T00:09:02;3.10;45.20
148;DHT22;142;50.652;12.216;2022-12-10T00:11:29;3.10;45.20
148;DHT22;142;50.652;12.216;2022-12-10T00:13:58;3.10;45.20
148;DHT22;142;50.652;12.216;2022-12-10T00:16:27;3.10;45.20
148;DHT22;142;50.652;12.216;2022-12-10T00:18:56;3.10;45.10
148;DHT22;142;50.652;12.216;2022-12-10T00:21:25;3.10;45.10
148;DHT22;142;50.652;12.216;2022-12-10T00:23:52;3.10;45.10
148;DHT22;142;50.652;12.216;2022-12-10T00:26:21;3.10;45.10
148;DHT22;142;50.652;12.216;2022-12-10T00:28:49;3.10;45.10
148;DHT22;142;50.652;12.216;2022-12-10T00:31:18;3.10;45.10
148;DHT22;142;50.652;12.216;2022-12-10T00:33:48;3.20;45.10
148;DHT22;142;50.652;12.216;2022-12-10T00:36:18;3.20;45.20
148;DHT22;142;50.652;12.216;2022-12-10T00:38:45;3.20;45.10
148;DHT22;142;50.652;12.216;2022-12-10T00:41:13;3.20;45.10
148;DHT22;142;50.652;12.216;2022-12-10T00:43:41;3.20;45.10
148;DHT22;142;50.652;12.216;2022-12-10T00:46:09;3.20;45.20
148;DHT22;142;50.652;12.216;2022-12-10T00:48:37;3.20;45.20
148;DHT22;142;50.652;12.216;2022-12-10T00:51:07;3.20;45.20
148;DHT22;142;50.652;12.216;2022-12-10T00:53:36;3.20;45.20
148;DHT22;142;50.652;12.216;2022-12-10T00:56:05;3.20;45.30
148;DHT22;142;50.652;12.216;2022-12-10T00:58:34;3.20;45.30
148;DHT22;142;50.652;12.216;2022-12-10T01:01:09;3.10;45.30
148;DHT22;142;50.652;12.216;2022-12-10T01:03:37;3.20;45.30
148;DHT22;142;50.652;12.216;2022-12-10T01:06:10;3.20;45.40
148;DHT22;142;50.652;12.216;2022-12-10T01:08:38;3.30;45.40
148;DHT22;142;50.652;12.216;2022-12-10T01:11:05;3.30;45.40
148;DHT22;142;50.652;12.216;2022-12-10T01:13:33;3.40;45.40
148;DHT22;142;50.652;12.216;2022-12-10T01:16:01;3.40;45.40
148;DHT22;142;50.652;12.216;2022-12-10T01:18:28;3.50;45.40
148;DHT22;142;50.652;12.216;2022-12-10T01:21:00;3.50;45.30
148;DHT22;142;50.652;12.216;2022-12-10T01:23:31;3.50;45.30
148;DHT22;142;50.652;12.216;2022-12-10T01:26:00;3.50;45.40
148;DHT22;142;50.652;12.216;2022-12-10T01:28:29;3.50;45.20
148;DHT22;142;50.652;12.216;2022-12-10T01:31:01;3.50;45.20
148;DHT22;142;50.652;12.216;2022-12-10T01:33:28;3.50;45.20
148;DHT22;142;50.652;12.216;2022-12-10T01:35:56;3.50;45.20
148;DHT22;142;50.652;12.216;2022-12-10T01:38:24;3.50;45.00
148;DHT22;142;50.652;12.216;2022-12-10T01:40:52;3.50;45.20
148;DHT22;142;50.652;12.216;2022-12-10T01:43:19;3.50;45.10
148;DHT22;142;50.652;12.216;2022-12-10T01:45:47;3.50;45.20
148;DHT22;142;50.652;12.216;2022-12-10T01:48:14;3.50;45.20
148;DHT22;142;50.652;12.216;2022-12-10T01:50:41;3.50;45.10
148;DHT22;142;50.652;12.216;2022-12-10T01:53:08;3.50;45.20
148;DHT22;142;50.652;12.216;2022-12-10T01:55:45;3.50;45.00
148;DHT22;142;50.652;12.216;2022-12-10T01:58:16;3.50;45.10
148;DHT22;142;50.652;12.216;2022-12-10T02:00:58;3.50;45.10
148;DHT22;142;50.652;12.216;2022-12-10T02:03:37;3.40;45.10
148;DHT22;142;50.652;12.216;2022-12-10T02:06:16;3.40;44.90
148;DHT22;142;50.652;12.216;2022-12-10T02:08:53;3.20;44.80
148;DHT22;142;50.652;12.216;2022-12-10T02:11:27;3.30;45.00
148;DHT22;142;50.652;12.216;2022-12-10T02:14:02;3.30;45.10
148;DHT22;142;50.652;12.216;2022-12-10T02:16:34;3.30;45.10
148;DHT22;142;50.652;12.216;2022-12-10T02:19:09;3.30;45.10
148;DHT22;142;50.652;12.216;2022-12-10T02:21:43;3.30;45.20
148;DHT22;142;50.652;12.216;2022-12-10T02:24:15;3.30;45.20
148;DHT22;142;50.652;12.216;2022-12-10T02:26:47;3.30;45.10
148;DHT22;142;50.652;12.216;2022-12-10T02:29:20;3.30;45.20
148;DHT22;142;50.652;12.216;2022-12-10T02:31:50;3.40;45.20
148;DHT22;142;50.652;12.216;2022-12-10T02:34:19;3.40;45.30
148;DHT22;142;50.652;12.216;2022-12-10T02:36:49;3.30;45.20
148;DHT22;142;50.652;12.216;2022-12-10T02:39:21;3.40;45.10
148;DHT22;142;50.652;12.216;2022-12-10T02:41:52;3.40;45.20
148;DHT22;142;50.652;12.216;2022-12-10T02:44:23;3.40;45.20
148;DHT22;142;50.652;12.216;2022-12-10T02:46:54;3.40;45.20
148;DHT22;142;50.652;12.216;2022-12-10T02:49:24;3.40;45.30
148;DHT22;142;50.652;12.216;2022-12-10T02:51:52;3.40;45.20
148;DHT22;142;50.652;12.216;2022-12-10T02:54:37;3.40;45.20
148;DHT22;142;50.652;12.216;2022-12-10T02:57:15;3.30;45.00
148;DHT22;142;50.652;12.216;2022-12-10T03:00:06;3.40;45.10
148;DHT22;142;50.652;12.216;2022-12-10T03:02:44;3.40;45.10
148;DHT22;142;50.652;12.216;2022-12-10T03:05:17;3.40;45.20
148;DHT22;142;50.652;12.216;2022-12-10T03:07:50;3.40;45.10
148;DHT22;142;50.652;12.216;2022-12-10T03:10:26;3.40;45.20
148;DHT22;142;50.652;12.216;2022-12-10T03:12:57;3.40;45.00
148;DHT22;142;50.652;12.216;2022-12-10T03:15:29;3.40;45.00
148;DHT22;142;50.652;12.216;2022-12-10T03:18:00;3.30;44.90
148;DHT22;142;50.652;12.216;2022-12-10T03:20:31;3.30;45.00
148;DHT22;142;50.652;12.216;2022-12-10T03:22:59;3.30;45.10
148;DHT22;142;50.652;12.216;2022-12-10T03:25:30;3.20;45.00
148;DHT22;142;50.652;12.216;2022-12-10T03:27:59;3.20;45.10
148;DHT22;142;50.652;12.216;2022-12-10T03:30:30;3.20;45.10
148;DHT22;142;50.652;12.216;2022-12-10T03:32:59;3.20;45.10
148;DHT22;142;50.652;12.216;2022-12-10T03:35:27;3.20;45.30
148;DHT22;142;50.652;12.216;2022-12-10T03:37:54;3.20;45.20
148;DHT22;142;50.652;12.216;2022-12-10T03:40:23;3.20;45.20
148;DHT22;142;50.652;12.216;2022-12-10T03:42:51;3.10;45.20
148;DHT22;142;50.652;12.216;2022-12-10T03:45:18;3.10;45.00
148;DHT22;142;50.652;12.216;2022-12-10T03:47:47;3.00;44.90
148;DHT22;142;50.652;12.216;2022-12-10T03:50:15;3.00;45.30
148;DHT22;142;50.652;12.216;2022-12-10T03:52:42;3.10;45.40
148;DHT22;142;50.652;12.216;2022-12-10T03:55:10;3.00;45.40
148;DHT22;142;50.652;12.216;2022-12-10T03:57:37;3.00;45.40
148;DHT22;142;50.652;12.216;2022-12-10T04:00:06;3.10;45.60
148;DHT22;142;50.652;12.216;2022-12-10T04:02:34;3.10;45.60
148;DHT22;142;50.652;12.216;2022-12-10T04:05:03;3.10;45.50
148;DHT22;142;50.652;12.216;2022-12-10T04:07:32;3.00;45.40
148;DHT22;142;50.652;12.216;2022-12-10T04:09:59;3.00;45.40
148;DHT22;142;50.652;12.216;2022-12-10T04:12:26;3.10;45.60
148;DHT22;142;50.652;12.216;2022-12-10T04:14:54;3.10;45.50
148;DHT22;142;50.652;12.216;2022-12-10T04:17:39;3.10;45.50
148;DHT22;142;50.652;12.216;2022-12-10T04:20:08;3.20;45.60
148;DHT22;142;50.652;12.216;2022-12-10T04:22:56;3.10;45.30
148;DHT22;142;50.652;12.216;2022-12-10T04:25:41;3.20;45.30
148;DHT22;142;50.652;12.216;2022-12-10T04:28:25;3.10;45.30
148;DHT22;142;50.652;12.216;2022-12-10T04:30:52;3.20;45.30
148;DHT22;142;50.652;12.216;2022-12-10T04:33:20;3.10;45.30
148;DHT22;142;50.652;12.216;2022-12-10T04:35:49;3.10;45.30
148;DHT22;142;50.652;12.216;2022-12-10T04:38:16;3.20;45.30
148;DHT22;142;50.652;12.216;2022-12-10T04:40:43;3.10;45.30
148;DHT22;142;50.652;12.216;2022-12-10T04:43:10;3.10;45.30
148;DHT22;142;50.652;12.216;2022-12-10T04:45:37;3.00;45.20
148;DHT22;142;50.652;12.216;2022-12-10T04:48:05;3.00;45.40
148;DHT22;142;50.652;12.216;2022-12-10T04:50:32;3.00;45.60
148;DHT22;142;50.652;12.216;2022-12-10T04:53:01;3.00;45.50
148;DHT22;142;50.652;12.216;2022-12-10T04:55:29;2.90;45.50
148;DHT22;142;50.652;12.216;2022-12-10T04:57:57;3.00;45.70
148;DHT22;142;50.652;12.216;2022-12-10T05:00:24;2.90;46.00
148;DHT22;142;50.652;12.216;2022-12-10T05:02:51;2.80;45.80
148;DHT22;142;50.652;12.216;2022-12-10T05:05:18;2.80;46.00
148;DHT22;142;50.652;12.216;2022-12-10T05:07:45;2.80;46.10
148;DHT22;142;50.652;12.216;2022-12-10T05:10:14;2.80;46.20
148;DHT22;142;50.652;12.216;2022-12-10T05:12:41;2.80;46.30
148;DHT22;142;50.652;12.216;2022-12-10T05:15:09;2.80;46.20
148;DHT22;142;50.652;12.216;2022-12-10T05:17:37;2.80;46.30
148;DHT22;142;50.652;12.216;2022-12-10T05:20:04;2.80;46.40
148;DHT22;142;50.652;12.216;2022-12-10T05:22:32;2.80;46.40
148;DHT22;142;50.652;12.216;2022-12-10T05:25:17;2.60;46.10
148;DHT22;142;50.652;12.216;2022-12-10T05:27:44;2.60;46.10
148;DHT22;142;50.652;12.216;2022-12-10T05:30:12;2.60;46.30
148;DHT22;142;50.652;12.216;2022-12-10T05:32:39;2.60;46.20
148;DHT22;142;50.652;12.216;2022-12-10T05:35:07;2.70;46.30
148;DHT22;142;50.652;12.216;2022-12-10T05:37:34;2.60;46.30
148;DHT22;142;50.652;12.216;2022-12-10T05:40:02;2.60;46.20
148;DHT22;142;50.652;12.216;2022-12-10T05:42:31;2.60;46.30
148;DHT22;142;50.652;12.216;2022-12-10T05:44:59;2.60;46.20
148;DHT22;142;50.652;12.216;2022-12-10T05:47:26;2.50;46.20
148;DHT22;142;50.652;12.216;2022-12-10T05:49:53;2.50;46.10
148;DHT22;142;50.652;12.216;2022-12-10T05:52:20;2.60;46.20
148;DHT22;142;50.652;12.216;2022-12-10T05:54:47;2.60;46.30
148;DHT22;142;50.652;12.216;2022-12-10T05:57:14;2.70;46.40
148;DHT22;142;50.652;12.216;2022-12-10T05:59:43;2.70;46.20
148;DHT22;142;50.652;12.216;2022-12-10T06:02:10;2.60;46.00
148;DHT22;142;50.652;12.216;2022-12-10T06:04:38;2.60;45.90
148;DHT22;142;50.652;12.216;2022-12-10T06:07:05;2.60;45.90
148;DHT22;142;50.652;12.216;2022-12-10T06:09:32;2.60;45.90
148;DHT22;142;50.652;12.216;2022-12-10T06:11:59;2.70;46.00
148;DHT22;142;50.652;12.216;2022-12-10T06:14:26;2.70;45.80
148;DHT22;142;50.652;12.216;2022-12-10T06:16:54;2.80;45.80
148;DHT22;142;50.652;12.216;2022-12-10T06:19:22;2.80;45.80
148;DHT22;142;50.652;12.216;2022-12-10T06:21:50;2.80;45.70
148;DHT22;142;50.652;12.216;2022-12-10T06:24:16;2.80;45.70
148;DHT22;142;50.652;12.216;2022-12-10T06:26:43;2.70;45.60
148;DHT22;142;50.652;12.216;2022-12-10T06:29:11;2.70;45.50
148;DHT22;142;50.652;12.216;2022-12-10T06:31:38;2.80;45.60
148;DHT22;142;50.652;12.216;2022-12-10T06:34:07;2.80;45.50
148;DHT22;142;50.652;12.216;2022-12-10T06:36:34;2.80;45.60
148;DHT22;142;50.652;12.216;2022-12-10T06:39:02;2.80;45.70
148;DHT22;142;50.652;12.216;2022-12-10T06:41:29;2.80;45.20
148;DHT22;142;50.652;12.216;2022-12-10T06:43:56;2.70;45.20
148;DHT22;142;50.652;12.216;2022-12-10T06:46:25;2.70;45.10
148;DHT22;142;50.652;12.216;2022-12-10T06:48:57;2.70;45.40
148;DHT22;142;50.652;12.216;2022-12-10T06:51:26;2.70;45.40
148;DHT22;142;50.652;12.216;2022-12-10T06:53:54;2.60;45.10
148;DHT22;142;50.652;12.216;2022-12-10T06:56:21;2.60;45.10
148;DHT22;142;50.652;12.216;2022-12-10T06:58:48;2.70;45.20
148;DHT22;142;50.652;12.216;2022-12-10T07:01:18;2.70;45.40
148;DHT22;142;50.652;12.216;2022-12-10T07:03:47;2.80;45.40
148;DHT22;142;50.652;12.216;2022-12-10T07:06:15;2.80;45.20
148;DHT22;142;50.652;12.216;2022-12-10T07:08:43;2.90;45.20
148;DHT22;142;50.652;12.216;2022-12-10T07:11:12;2.80;45.10
148;DHT22;142;50.652;12.216;2022-12-10T07:13:40;2.90;45.00
148;DHT22;142;50.652;12.216;2022-12-10T07:16:12;2.90;45.00
148;DHT22;142;50.652;12.216;2022-12-10T07:18:40;2.90;44.80
148;DHT22;142;50.652;12.216;2022-12-10T07:21:13;2.90;44.80
148;DHT22;142;50.652;12.216;2022-12-10T07:23:41;2.90;44.80
148;DHT22;142;50.652;12.216;2022-12-10T07:26:09;2.90;44.70
148;DHT22;142;50.652;12.216;2022-12-10T07:28:37;3.00;44.80
148;DHT22;142;50.652;12.216;2022-12-10T07:31:05;3.00;44.70
148;DHT22;142;50.652;12.216;2022-12-10T07:33:33;3.00;44.60
148;DHT22;142;50.652;12.216;2022-12-10T07:36:03;3.00;44.60
148;DHT22;142;50.652;12.216;2022-12-10T07:38:30;3.00;44.60
148;DHT22;142;50.652;12.216;2022-12-10T07:41:02;3.00;44.50
148;DHT22;142;50.652;12.216;2022-12-10T07:43:33;3.00;44.50
148;DHT22;142;50.652;12.216;2022-12-10T07:46:03;3.00;44.50
148;DHT22;142;50.652;12.216;2022-12-10T07:48:31;3.00;44.50
148;DHT22;142;50.652;12.216;2022-12-10T07:50:59;3.00;44.50
148;DHT22;142;50.652;12.216;2022-12-10T07:53:26;3.00;44.50
148;DHT22;142;50.652;12.216;2022-12-10T07:55:54;3.10;44.40
148;DHT22;142;50.652;12.216;2022-12-10T07:58:21;3.00;44.40
148;DHT22;142;50.652;12.216;2022-12-10T08:00:50;2.90;44.10
148;DHT22;142;50.652;12.216;2022-12-10T08:03:17;3.00;44.20
148;DHT22;142;50.652;12.216;2022-12-10T08:05:44;3.00;44.40
148;DHT22;142;50.652;12.216;2022-12-10T08:08:12;3.00;44.40
148;DHT22;142;50.652;12.216;2022-12-10T08:10:39;3.00;44.60
148;DHT22;142;50.652;12.216;2022-12-10T08:13:06;3.00;44.50
148;DHT22;142;50.652;12.216;2022-12-10T08:15:34;3.10;44.50
148;DHT22;142;50.652;12.216;2022-12-10T08:18:02;3.10;44.60
148;DHT22;142;50.652;12.216;2022-12-10T08:20:30;3.20;44.50
148;DHT22;142;50.652;12.216;2022-12-10T08:22:57;3.20;44.30
148;DHT22;142;50.652;12.216;2022-12-10T08:25:25;3.10;44.10
148;DHT22;142;50.652;12.216;2022-12-10T08:27:52;3.10;43.90
148;DHT22;142;50.652;12.216;2022-12-10T08:30:19;3.10;44.00
148;DHT22;142;50.652;12.216;2022-12-10T08:32:47;3.10;43.90
148;DHT22;142;50.652;12.216;2022-12-10T08:35:16;3.00;43.80
148;DHT22;142;50.652;12.216;2022-12-10T08:37:44;3.00;43.80
148;DHT22;142;50.652;12.216;2022-12-10T08:40:11;3.00;43.90
148;DHT22;142;50.652;12.216;2022-12-10T08:42:39;3.00;43.90
148;DHT22;142;50.652;12.216;2022-12-10T08:45:07;3.00;43.80
148;DHT22;142;50.652;12.216;2022-12-10T08:47:34;2.90;43.80
148;DHT22;142;50.652;12.216;2022-12-10T08:50:01;2.90;43.70
148;DHT22;142;50.652;12.216;2022-12-10T08:52:30;2.90;43.90
148;DHT22;142;50.652;12.216;2022-12-10T08:54:57;3.00;44.00
148;DHT22;142;50.652;12.216;2022-12-10T08:57:25;3.00;44.10
148;DHT22;142;50.652;12.216;2022-12-10T08:59:51;3.00;44.00
148;DHT22;142;50.652;12.216;2022-12-10T09:02:19;3.00;43.90
148;DHT22;142;50.652;12.216;2022-12-10T09:04:46;3.00;43.90
148;DHT22;142;50.652;12.216;2022-12-10T09:07:15;3.10;44.00
148;DHT22;142;50.652;12.216;2022-12-10T09:09:44;2.90;43.90
148;DHT22;142;50.652;12.216;2022-12-10T09:12:11;2.90;43.60
148;DHT22;142;50.652;12.216;2022-12-10T09:14:38;2.90;43.90
148;DHT22;142;50.652;12.216;2022-12-10T09:17:06;2.70;43.60
148;DHT22;142;50.652;12.216;2022-12-10T09:19:33;2.60;43.50
148;DHT22;142;50.652;12.216;2022-12-10T09:22:00;2.60;43.70
148;DHT22;142;50.652;12.216;2022-12-10T09:24:28;2.60;43.70
148;DHT22;142;50.652;12.216;2022-12-10T09:26:57;2.60;43.80
148;DHT22;142;50.652;12.216;2022-12-10T09:29:24;2.70;43.80
148;DHT22;142;50.652;12.216;2022-12-10T09:31:51;2.70;43.80
148;DHT22;142;50.652;12.216;2022-12-10T09:34:18;2.60;43.60
148;DHT22;142;50.652;12.216;2022-12-10T09:36:46;2.60;43.50
148;DHT22;142;50.652;12.216;2022-12-10T09:39:14;2.60;43.50
148;DHT22;142;50.652;12.216;2022-12-10T09:42:01;2.60;43.40
148;DHT22;142;50.652;12.216;2022-12-10T09:44:41;2.50;43.30
148;DHT22;142;50.652;12.216;2022-12-10T09:47:14;2.50;43.30
148;DHT22;142;50.652;12.216;2022-12-10T09:49:50;2.60;43.40
148;DHT22;142;50.652;12.216;2022-12-10T09:52:23;2.70;43.30
148;DHT22;142;50.652;12.216;2022-12-10T09:54:54;2.60;43.30
148;DHT22;142;50.652;12.216;2022-12-10T09:57:28;2.60;43.10
148;DHT22;142;50.652;12.216;2022-12-10T09:59:56;2.60;42.80
148;DHT22;142;50.652;12.216;2022-12-10T10:02:28;2.70;43.10
148;DHT22;142;50.652;12.216;2022-12-10T10:05:00;2.70;42.90
148;DHT22;142;50.652;12.216;2022-12-10T10:07:29;2.70;42.90
148;DHT22;142;50.652;12.216;2022-12-10T10:09:59;2.70;42.40
148;DHT22;142;50.652;12.216;2022-12-10T10:12:31;2.70;42.40
148;DHT22;142;50.652;12.216;2022-12-10T10:14:59;2.80;42.60
148;DHT22;142;50.652;12.216;2022-12-10T10:17:36;2.80;42.60
148;DHT22;142;50.652;12.216;2022-12-10T10:20:05;2.80;42.60
148;DHT22;142;50.652;12.216;2022-12-10T10:22:32;2.80;42.70
148;DHT22;142;50.652;12.216;2022-12-10T10:24:59;2.90;42.30
148;DHT22;142;50.652;12.216;2022-12-10T10:27:30;2.90;41.80
148;DHT22;142;50.652;12.216;2022-12-10T10:30:01;2.90;41.70
148;DHT22;142;50.652;12.216;2022-12-10T10:32:44;3.00;41.60
148;DHT22;142;50.652;12.216;2022-12-10T10:35:22;3.00;41.80
148;DHT22;142;50.652;12.216;2022-12-10T10:37:50;2.90;41.80
148;DHT22;142;50.652;12.216;2022-12-10T10:40:26;2.90;41.90
148;DHT22;142;50.652;12.216;2022-12-10T10:42:57;2.90;42.00
148;DHT22;142;50.652;12.216;2022-12-10T10:45:38;2.90;42.10
148;DHT22;142;50.652;12.216;2022-12-10T10:48:09;3.00;42.10
148;DHT22;142;50.652;12.216;2022-12-10T10:50:39;2.90;42.20
148;DHT22;142;50.652;12.216;2022-12-10T10:53:23;3.00;42.20
148;DHT22;142;50.652;12.216;2022-12-10T10:55:51;3.00;42.30
148;DHT22;142;50.652;12.216;2022-12-10T10:58:22;2.90;42.60
148;DHT22;142;50.652;12.216;2022-12-10T11:00:58;2.70;42.40
148;DHT22;142;50.652;12.216;2022-12-10T11:03:26;2.60;43.00
148;DHT22;142;50.652;12.216;2022-12-10T11:05:56;2.50;43.10
148;DHT22;142;50.652;12.216;2022-12-10T11:08:25;2.50;43.50
148;DHT22;142;50.652;12.216;2022-12-10T11:10:59;2.40;43.80
148;DHT22;142;50.652;12.216;2022-12-10T11:13:32;2.40;43.90
148;DHT22;142;50.652;12.216;2022-12-10T11:16:02;2.40;44.30
148;DHT22;142;50.652;12.216;2022-12-10T11:18:38;2.50;44.30
148;DHT22;142;50.652;12.216;2022-12-10T11:21:16;2.70;44.60
148;DHT22;142;50.652;12.216;2022-12-10T11:23:49;2.80;44.40
148;DHT22;142;50.652;12.216;2022-12-10T11:26:37;2.80;44.10
148;DHT22;142;50.652;12.216;2022-12-10T11:29:16;2.80;43.80
148;DHT22;142;50.652;12.216;2022-12-10T11:31:54;2.80;43.70
148;DHT22;142;50.652;12.216;2022-12-10T11:34:31;2.70;43.40
148;DHT22;142;50.652;12.216;2022-12-10T11:37:05;2.60;43.60
148;DHT22;142;50.652;12.216;2022-12-10T11:39:59;2.50;43.50
148;DHT22;142;50.652;12.216;2022-12-10T11:42:38;2.60;43.60
148;DHT22;142;50.652;12.216;2022-12-10T11:45:17;2.50;43.80
148;DHT22;142;50.652;12.216;2022-12-10T11:48:03;2.50;43.80
148;DHT22;142;50.652;12.216;2022-12-10T11:50:38;2.60;44.10
148;DHT22;142;50.652;12.216;2022-12-10T11:53:19;2.40;43.80
148;DHT22;142;50.652;12.216;2022-12-10T11:55:57;2.40;43.90
148;DHT22;142;50.652;12.216;2022-12-10T11:58:48;2.40;44.00
148;DHT22;142;50.652;12.216;2022-12-10T12:01:23;2.40;44.00
148;DHT22;142;50.652;12.216;2022-12-10T12:07:19;2.60;44.20
148;DHT22;142;50.652;12.216;2022-12-10T12:09:57;2.50;44.00
148;DHT22;142;50.652;12.216;2022-12-10T12:12:33;2.50;44.10
148;DHT22;142;50.652;12.216;2022-12-10T12:15:04;2.40;44.00
148;DHT22;142;50.652;12.216;2022-12-10T12:17:40;2.40;44.10
148;DHT22;142;50.652;12.216;2022-12-10T12:20:16;2.50;44.20
148;DHT22;142;50.652;12.216;2022-12-10T12:22:49;2.50;44.20
148;DHT22;142;50.652;12.216;2022-12-10T12:25:22;2.60;44.20
148;DHT22;142;50.652;12.216;2022-12-10T12:27:53;2.70;44.10
148;DHT22;142;50.652;12.216;2022-12-10T12:30:22;2.80;44.20
148;DHT22;142;50.652;12.216;2022-12-10T12:32:55;2.80;44.10
148;DHT22;142;50.652;12.216;2022-12-10T12:35:33;2.90;44.10
148;DHT22;142;50.652;12.216;2022-12-10T12:38:10;2.90;43.90
148;DHT22;142;50.652;12.216;2022-12-10T12:40:47;2.90;43.90
148;DHT22;142;50.652;12.216;2022-12-10T12:43:19;2.70;43.60
148;DHT22;142;50.652;12.216;2022-12-10T12:45:48;2.60;43.70
148;DHT22;142;50.652;12.216;2022-12-10T12:48:22;2.50;43.60
148;DHT22;142;50.652;12.216;2022-12-10T12:50:54;2.50;43.70
148;DHT22;142;50.652;12.216;2022-12-10T12:53:23;2.50;43.90
148;DHT22;142;50.652;12.216;2022-12-10T12:55:57;2.40;44.00
148;DHT22;142;50.652;12.216;2022-12-10T12:58:33;2.40;44.20
148;DHT22;142;50.652;12.216;2022-12-10T13:01:12;2.30;44.00
148;DHT22;142;50.652;12.216;2022-12-10T13:03:43;2.20;43.90
148;DHT22;142;50.652;12.216;2022-12-10T13:06:19;2.30;44.40
148;DHT22;142;50.652;12.216;2022-12-10T13:08:49;2.30;44.50
148;DHT22;142;50.652;12.216;2022-12-10T13:11:34;2.20;44.40
148;DHT22;142;50.652;12.216;2022-12-10T13:14:12;2.30;44.80
148;DHT22;142;50.652;12.216;2022-12-10T13:19:31;2.10;44.50
148;DHT22;142;50.652;12.216;2022-12-10T13:22:07;2.00;44.60
148;DHT22;142;50.652;12.216;2022-12-10T13:25:04;2.10;44.90
148;DHT22;142;50.652;12.216;2022-12-10T13:27:34;2.00;44.80
148;DHT22;142;50.652;12.216;2022-12-10T13:32:47;2.10;44.80
148;DHT22;142;50.652;12.216;2022-12-10T13:35:29;1.90;44.70
148;DHT22;142;50.652;12.216;2022-12-10T13:38:03;1.80;44.40
148;DHT22;142;50.652;12.216;2022-12-10T13:40:40;1.90;44.60
148;DHT22;142;50.652;12.216;2022-12-10T13:43:35;1.90;44.60
148;DHT22;142;50.652;12.216;2022-12-10T13:46:22;1.90;44.30
148;DHT22;142;50.652;12.216;2022-12-10T13:48:50;2.00;44.60
148;DHT22;142;50.652;12.216;2022-12-10T13:54:47;2.00;44.50
148;DHT22;142;50.652;12.216;2022-12-10T13:57:31;1.90;44.50
148;DHT22;142;50.652;12.216;2022-12-10T14:00:08;1.90;44.50
148;DHT22;142;50.652;12.216;2022-12-10T14:02:54;2.00;44.70
148;DHT22;142;50.652;12.216;2022-12-10T14:05:32;1.90;44.50
148;DHT22;142;50.652;12.216;2022-12-10T14:08:04;1.90;44.40
148;DHT22;142;50.652;12.216;2022-12-10T14:10:35;1.90;44.50
148;DHT22;142;50.652;12.216;2022-12-10T14:13:04;1.90;44.30
148;DHT22;142;50.652;12.216;2022-12-10T14:15:34;1.90;44.40
148;DHT22;142;50.652;12.216;2022-12-10T14:18:09;2.00;44.30
148;DHT22;142;50.652;12.216;2022-12-10T14:20:40;2.00;44.30
148;DHT22;142;50.652;12.216;2022-12-10T14:23:22;2.10;44.30
148;DHT22;142;50.652;12.216;2022-12-10T14:26:04;2.10;44.10
148;DHT22;142;50.652;12.216;2022-12-10T14:28:32;2.10;44.30
148;DHT22;142;50.652;12.216;2022-12-10T14:31:00;2.10;44.10
148;DHT22;142;50.652;12.216;2022-12-10T14:33:27;2.00;44.10
148;DHT22;142;50.652;12.216;2022-12-10T14:35:54;1.70;43.80
148;DHT22;142;50.652;12.216;2022-12-10T14:38:26;1.70;44.30
148;DHT22;142;50.652;12.216;2022-12-10T14:40:55;1.60;44.40
148;DHT22;142;50.652;12.216;2022-12-10T14:43:24;1.60;44.80
148;DHT22;142;50.652;12.216;2022-12-10T14:45:58;1.60;45.00
148;DHT22;142;50.652;12.216;2022-12-10T14:48:26;1.70;45.30
148;DHT22;142;50.652;12.216;2022-12-10T14:50:56;1.70;45.00
148;DHT22;142;50.652;12.216;2022-12-10T14:53:31;1.80;45.40
148;DHT22;142;50.652;12.216;2022-12-10T14:56:02;1.90;45.50
148;DHT22;142;50.652;12.216;2022-12-10T14:58:47;2.00;45.40
148;DHT22;142;50.652;12.216;2022-12-10T15:01:25;2.00;45.30
148;DHT22;142;50.652;12.216;2022-12-10T15:03:54;2.00;45.00
148;DHT22;142;50.652;12.216;2022-12-10T15:06:22;2.10;45.00
148;DHT22;142;50.652;12.216;2022-12-10T15:08:53;2.10;45.10
148;DHT22;142;50.652;12.216;2022-12-10T15:11:21;2.20;45.00
148;DHT22;142;50.652;12.216;2022-12-10T15:13:52;2.10;44.80
148;DHT22;142;50.652;12.216;2022-12-10T15:16:28;2.10;44.60
148;DHT22;142;50.652;12.216;2022-12-10T15:18:55;2.10;44.70
148;DHT22;142;50.652;12.216;2022-12-10T15:21:42;2.10;44.80
148;DHT22;142;50.652;12.216;2022-12-10T15:24:16;2.10;44.60
148;DHT22;142;50.652;12.216;2022-12-10T15:26:44;1.90;44.30
148;DHT22;142;50.652;12.216;2022-12-10T15:29:35;1.80;44.20
148;DHT22;142;50.652;12.216;2022-12-10T15:32:12;1.80;44.30
148;DHT22;142;50.652;12.216;2022-12-10T15:34:45;1.80;44.40
148;DHT22;142;50.652;12.216;2022-12-10T15:37:19;1.80;44.40
148;DHT22;142;50.652;12.216;2022-12-10T15:39:52;1.80;44.50
148;DHT22;142;50.652;12.216;2022-12-10T15:42:37;1.70;44.30
148;DHT22;142;50.652;12.216;2022-12-10T15:45:20;1.80;44.50
148;DHT22;142;50.652;12.216;2022-12-10T15:47:48;1.80;44.60
148;DHT22;142;50.652;12.216;2022-12-10T15:50:16;1.80;44.50
148;DHT22;142;50.652;12.216;2022-12-10T15:52:43;1.70;44.40
148;DHT22;142;50.652;12.216;2022-12-10T15:55:11;1.70;44.40
148;DHT22;142;50.652;12.216;2022-12-10T15:57:40;1.70;44.40
148;DHT22;142;50.652;12.216;2022-12-10T16:00:18;1.70;44.30
148;DHT22;142;50.652;12.216;2022-12-10T16:02:47;1.70;44.40
148;DHT22;142;50.652;12.216;2022-12-10T16:05:18;1.70;44.30
148;DHT22;142;50.652;12.216;2022-12-10T16:07:48;1.80;44.50
148;DHT22;142;50.652;12.216;2022-12-10T16:10:18;1.80;44.40
148;DHT22;142;50.652;12.216;2022-12-10T16:12:49;1.90;44.50
148;DHT22;142;50.652;12.216;2022-12-10T16:15:20;1.90;44.50
148;DHT22;142;50.652;12.216;2022-12-10T16:17:47;2.00;44.60
148;DHT22;142;50.652;12.216;2022-12-10T16:20:20;2.00;44.60
148;DHT22;142;50.652;12.216;2022-12-10T16:22:48;2.00;44.40
148;DHT22;142;50.652;12.216;2022-12-10T16:25:15;1.90;44.40
148;DHT22;142;50.652;12.216;2022-12-10T16:27:43;1.90;44.20
148;DHT22;142;50.652;12.216;2022-12-10T16:30:19;2.00;44.30
148;DHT22;142;50.652;12.216;2022-12-10T16:32:47;2.10;44.30
148;DHT22;142;50.652;12.216;2022-12-10T16:35:16;2.10;44.30
148;DHT22;142;50.652;12.216;2022-12-10T16:37:48;2.10;44.20
148;DHT22;142;50.652;12.216;2022-12-10T16:40:21;2.10;44.20
148;DHT22;142;50.652;12.216;2022-12-10T16:42:51;2.00;43.80
148;DHT22;142;50.652;12.216;2022-12-10T16:45:25;2.00;43.90
148;DHT22;142;50.652;12.216;2022-12-10T16:47:55;1.90;43.70
148;DHT22;142;50.652;12.216;2022-12-10T16:50:22;1.90;44.00
148;DHT22;142;50.652;12.216;2022-12-10T16:52:52;1.90;44.10
148;DHT22;142;50.652;12.216;2022-12-10T16:55:24;2.00;44.10
148;DHT22;142;50.652;12.216;2022-12-10T16:57:52;2.00;44.10
148;DHT22;142;50.652;12.216;2022-12-10T17:00:24;2.10;44.30
148;DHT22;142;50.652;12.216;2022-12-10T17:02:53;2.00;44.30
148;DHT22;142;50.652;12.216;2022-12-10T17:05:35;2.00;44.10
148;DHT22;142;50.652;12.216;2022-12-10T17:08:03;2.00;44.40
148;DHT22;142;50.652;12.216;2022-12-10T17:10:30;2.00;44.30
148;DHT22;142;50.652;12.216;2022-12-10T17:13:15;2.00;44.20